Time;durP1;ratioP1;P1;durP2;ratioP2;P2;SDS_P1;SDS_P2;PMS_P1;PMS_P2;Temp;Humidity;BMP_temperature;BMP_pressure;BME280_temperature;BME280_humidity;BME280_pressure;Samples;Min_cycle;Max_cycle;Signal;HPM_P1;HPM_P2
2022/02/22 05:00:18;;;;;;;7.73;3.40;;;5.30;99.90;;;;;;5959105;23;20397;-70
2022/02/22 05:02:45;;;;;;;5.80;3.83;;;5.20;99.90;;;;;;4941785;29;20457;-69
2022/02/22 05:05:12;;;;;;;11.83;3.40;;;5.20;99.90;;;;;;4941834;29;20440;-68
2022/02/22 05:07:39;;;;;;;7.00;2.77;;;5.10;99.90;;;;;;4940335;29;20954;-70
2022/02/22 05:10:06;;;;;;;8.07;2.63;;;5.10;99.90;;;;;;4941218;29;20464;-69
2022/02/22 05:12:33;;;;;;;5.07;2.77;;;5.10;99.90;;;;;;4941745;29;20951;-69
2022/02/22 05:15:00;;;;;;;10.37;4.20;;;5.10;99.90;;;;;;4943221;29;20461;-69
2022/02/22 05:17:28;;;;;;;7.67;2.87;;;5.10;99.90;;;;;;4945160;29;20792;-69
2022/02/22 05:19:55;;;;;;;4.90;2.87;;;5.10;99.90;;;;;;4939911;29;20817;-69
2022/02/22 05:22:21;;;;;;;6.20;3.43;;;5.10;99.90;;;;;;4940157;29;20483;-68
2022/02/22 05:24:48;;;;;;;8.93;3.70;;;5.10;99.90;;;;;;4939622;29;20468;-69
2022/02/22 05:27:15;;;;;;;7.70;3.70;;;5.20;99.90;;;;;;4939685;29;20985;-70
2022/02/22 05:29:41;;;;;;;12.37;3.70;;;5.10;99.90;;;;;;4939748;29;20458;-69
2022/02/22 05:32:09;;;;;;;9.90;3.37;;;5.20;99.90;;;;;;4939785;29;20491;-70
2022/02/22 05:34:37;;;;;;;7.63;2.97;;;5.20;99.90;;;;;;4939877;29;20817;-69
2022/02/22 05:37:04;;;;;;;7.90;3.00;;;5.20;99.90;;;;;;4940146;29;20457;-70
2022/02/22 05:39:31;;;;;;;9.47;3.07;;;5.20;99.90;;;;;;4939977;29;20461;-70
2022/02/22 05:41:58;;;;;;;6.03;3.00;;;5.20;99.90;;;;;;4939724;29;20484;-69
2022/02/22 05:44:25;;;;;;;12.97;2.70;;;5.20;99.90;;;;;;4939623;29;20465;-69
2022/02/22 05:46:52;;;;;;;7.23;2.83;;;5.30;99.90;;;;;;4939088;29;20818;-69
2022/02/22 05:49:18;;;;;;;7.60;2.60;;;5.20;99.90;;;;;;4939239;29;20459;-69
2022/02/22 05:51:46;;;;;;;6.93;3.00;;;5.20;99.90;;;;;;4939476;29;20845;-68
2022/02/22 05:54:13;;;;;;;9.13;3.30;;;5.20;99.90;;;;;;4939507;29;20498;-68
2022/02/22 05:56:40;;;;;;;5.00;2.73;;;5.20;99.90;;;;;;4939264;29;20492;-70
2022/02/22 05:59:07;;;;;;;9.90;3.07;;;5.20;99.90;;;;;;4939394;29;20820;-69
2022/02/22 06:01:34;;;;;;;6.43;2.70;;;5.10;99.90;;;;;;4939011;29;20488;-69
2022/02/22 06:04:01;;;;;;;7.63;3.40;;;5.10;99.90;;;;;;4939135;29;20472;-70
2022/02/22 06:06:28;;;;;;;4.27;3.50;;;5.10;99.90;;;;;;4939160;29;20483;-69
2022/02/22 06:08:56;;;;;;;7.23;2.60;;;5.00;99.90;;;;;;4938947;29;20944;-69
2022/02/22 06:11:23;;;;;;;14.37;2.90;;;5.00;99.90;;;;;;4938659;29;20483;-69
2022/02/22 06:13:50;;;;;;;3.63;2.43;;;4.90;99.90;;;;;;4938987;29;20480;-68
2022/02/22 06:16:16;;;;;;;8.37;2.73;;;4.90;99.90;;;;;;4938717;29;20498;-68
2022/02/22 06:18:43;;;;;;;5.93;2.93;;;4.90;99.90;;;;;;4939097;29;20464;-69
2022/02/22 06:21:10;;;;;;;6.50;2.77;;;4.90;99.90;;;;;;4939423;29;20508;-69
2022/02/22 06:23:37;;;;;;;8.33;2.50;;;4.80;99.90;;;;;;4939679;29;20445;-70
2022/02/22 06:26:05;;;;;;;7.80;3.03;;;4.80;99.90;;;;;;4938544;29;21065;-69
2022/02/22 06:28:33;;;;;;;6.20;3.40;;;4.80;99.90;;;;;;4938110;29;20962;-69
2022/02/22 06:31:00;;;;;;;6.83;2.87;;;4.80;99.90;;;;;;4938226;29;20484;-70
2022/02/22 06:33:27;;;;;;;8.87;3.30;;;4.80;99.90;;;;;;4938171;29;20570;-70
2022/02/22 06:35:54;;;;;;;5.87;3.07;;;4.80;99.90;;;;;;4938367;29;20467;-70
2022/02/22 06:38:21;;;;;;;6.73;2.90;;;4.80;99.90;;;;;;4939662;29;20460;-72
2022/02/22 06:40:47;;;;;;;8.10;2.70;;;4.90;99.90;;;;;;4939079;29;20483;-70
2022/02/22 06:43:15;;;;;;;9.13;3.33;;;4.90;99.90;;;;;;4939879;29;20947;-69
2022/02/22 06:45:42;;;;;;;12.63;3.60;;;4.90;99.90;;;;;;4939790;29;20452;-69
2022/02/22 06:48:11;;;;;;;6.20;3.30;;;5.00;99.90;;;;;;4939820;29;20461;-70
2022/02/22 06:50:38;;;;;;;10.37;3.90;;;5.00;99.90;;;;;;4945600;29;20484;-69
2022/02/22 06:53:05;;;;;;;10.87;3.30;;;5.10;99.90;;;;;;4939708;29;21021;-69
2022/02/22 06:55:31;;;;;;;8.77;3.40;;;5.10;99.90;;;;;;4939172;29;20461;-69
2022/02/22 06:58:06;;;;;;;9.30;3.07;;;5.20;99.90;;;;;;4939620;29;20467;-69
2022/02/22 07:00:34;;;;;;;5.73;3.43;;;5.30;99.90;;;;;;4939085;29;20486;-69
2022/02/22 07:03:02;;;;;;;7.33;3.60;;;5.40;99.90;;;;;;4939604;29;20470;-69
2022/02/22 07:05:29;;;;;;;11.77;4.00;;;5.50;99.90;;;;;;4938843;29;20519;-69
2022/02/22 07:07:57;;;;;;;6.30;3.40;;;5.60;99.90;;;;;;4938708;29;20464;-70
2022/02/22 07:10:24;;;;;;;11.13;3.77;;;5.70;99.90;;;;;;4938774;29;20456;-69
2022/02/22 07:12:51;;;;;;;10.00;3.13;;;5.70;99.90;;;;;;4938338;29;20495;-70
2022/02/22 07:15:23;;;;;;;9.60;3.10;;;5.80;99.90;;;;;;4940599;29;20444;-69
2022/02/22 07:17:52;;;;;;;6.83;4.23;;;6.00;99.90;;;;;;4938897;29;20481;-69
2022/02/22 07:20:20;;;;;;;9.60;3.53;;;6.30;99.90;;;;;;4938438;29;20465;-69
2022/02/22 07:22:49;;;;;;;5.20;2.80;;;7.00;99.90;;;;;;4938413;29;20461;-68
2022/02/22 07:25:17;;;;;;;7.80;3.80;;;7.70;99.90;;;;;;4937857;29;20955;-68
2022/02/22 07:27:45;;;;;;;7.20;2.97;;;7.90;99.90;;;;;;4937893;29;20445;-69
2022/02/22 07:30:14;;;;;;;9.10;3.20;;;7.90;99.90;;;;;;4937954;29;20460;-69
2022/02/22 07:32:42;;;;;;;9.40;3.97;;;7.80;99.90;;;;;;4938138;29;20444;-68
2022/02/22 07:35:11;;;;;;;9.03;3.57;;;7.60;99.90;;;;;;4937870;29;20457;-70
2022/02/22 07:37:38;;;;;;;9.70;3.80;;;7.30;99.90;;;;;;4937933;29;20445;-69
2022/02/22 07:40:07;;;;;;;12.13;3.30;;;7.20;99.90;;;;;;4937840;29;20461;-69
2022/02/22 07:42:33;;;;;;;11.80;4.40;;;7.40;99.90;;;;;;4937548;29;20999;-69
2022/02/22 07:45:00;;;;;;;9.50;3.93;;;7.50;99.90;;;;;;4937908;29;20508;-69
2022/02/22 07:47:27;;;;;;;15.23;4.43;;;7.90;99.90;;;;;;4938043;29;20456;-69
2022/02/22 07:49:55;;;;;;;9.77;3.23;;;8.30;99.90;;;;;;4938934;29;20464;-68
2022/02/22 07:52:22;;;;;;;7.37;2.90;;;8.50;99.90;;;;;;4937710;29;20480;-69
2022/02/22 07:54:49;;;;;;;11.23;3.53;;;8.60;99.90;;;;;;4937519;29;20491;-68
2022/02/22 07:57:16;;;;;;;8.30;3.77;;;8.50;99.90;;;;;;4937483;29;20952;-68
2022/02/22 07:59:42;;;;;;;5.93;3.47;;;8.40;99.90;;;;;;4937907;29;20483;-69
2022/02/22 08:02:09;;;;;;;9.80;3.80;;;8.30;99.90;;;;;;4937452;29;20996;-68
2022/02/22 08:04:36;;;;;;;10.90;3.40;;;8.30;99.90;;;;;;4937793;29;20464;-69
2022/02/22 08:07:05;;;;;;;8.97;3.03;;;8.50;99.90;;;;;;4937322;29;20460;-69
2022/02/22 08:09:31;;;;;;;8.83;3.73;;;8.70;99.90;;;;;;4937327;29;20464;-68
2022/02/22 08:11:58;;;;;;;14.33;3.40;;;8.90;99.90;;;;;;4937399;29;20484;-69
2022/02/22 08:14:26;;;;;;;8.93;3.17;;;9.30;99.90;;;;;;4937166;29;20535;-68
2022/02/22 08:16:57;;;;;;;8.30;3.57;;;9.70;99.90;;;;;;4936744;29;20507;-68
2022/02/22 08:19:24;;;;;;;9.83;3.40;;;9.90;99.90;;;;;;4936701;29;20480;-68
2022/02/22 08:21:51;;;;;;;5.73;3.10;;;10.00;99.90;;;;;;4939983;29;20498;-68
2022/02/22 08:24:21;;;;;;;10.40;2.77;;;10.20;99.90;;;;;;4936687;29;20457;-68
2022/02/22 08:26:48;;;;;;;7.90;3.27;;;10.90;99.90;;;;;;4936544;29;20440;-68
2022/02/22 08:29:15;;;;;;;7.17;2.63;;;11.60;99.90;;;;;;4938919;29;20834;-68
2022/02/22 08:31:42;;;;;;;9.40;3.20;;;12.10;99.90;;;;;;4939631;29;20483;-68
2022/02/22 08:34:09;;;;;;;14.93;2.60;;;12.70;99.90;;;;;;4940238;29;20480;-68
2022/02/22 08:36:36;;;;;;;7.50;2.77;;;12.70;99.90;;;;;;4940407;29;20849;-68
2022/02/22 08:39:03;;;;;;;11.73;3.47;;;13.10;99.90;;;;;;4940058;29;20507;-68
2022/02/22 08:41:31;;;;;;;10.73;3.60;;;13.00;99.90;;;;;;4939688;29;20480;-68
2022/02/22 08:43:58;;;;;;;8.10;3.80;;;12.60;99.90;;;;;;4940079;29;20456;-69
2022/02/22 08:46:25;;;;;;;11.70;3.30;;;12.10;99.90;;;;;;4939824;29;20456;-68
2022/02/22 08:48:51;;;;;;;8.67;3.80;;;11.70;99.90;;;;;;4940578;29;20467;-67
2022/02/22 08:51:18;;;;;;;7.77;2.80;;;11.20;99.90;;;;;;4939553;29;20476;-67
2022/02/22 08:53:45;;;;;;;6.10;3.23;;;11.00;99.90;;;;;;4939682;29;20802;-68
2022/02/22 08:56:13;;;;;;;6.70;3.00;;;10.40;99.90;;;;;;4939241;29;20963;-68
2022/02/22 08:58:41;;;;;;;7.80;2.63;;;10.10;99.90;;;;;;4939254;29;21143;-67
2022/02/22 09:01:08;;;;;;;10.87;2.87;;;9.90;99.90;;;;;;4939076;29;20488;-69
2022/02/22 09:03:35;;;;;;;8.37;2.97;;;9.50;99.90;;;;;;4939825;29;20463;-68
2022/02/22 09:06:02;;;;;;;7.17;2.80;;;9.20;99.90;;;;;;4945185;29;20464;-68
2022/02/22 09:08:29;;;;;;;7.97;2.83;;;8.90;99.90;;;;;;4940969;29;20468;-68
2022/02/22 09:10:56;;;;;;;11.90;3.17;;;8.80;99.90;;;;;;4939392;29;20477;-67
2022/02/22 09:13:23;;;;;;;4.87;2.60;;;8.80;99.90;;;;;;4939177;29;20541;-68
2022/02/22 09:15:51;;;;;;;5.50;2.53;;;8.80;99.90;;;;;;4939074;29;20461;-69
2022/02/22 09:18:18;;;;;;;8.00;3.07;;;8.80;99.90;;;;;;4939571;29;20487;-68
2022/02/22 09:20:45;;;;;;;11.10;2.80;;;8.70;99.90;;;;;;4939604;29;20487;-68
2022/02/22 09:23:12;;;;;;;9.57;2.87;;;8.70;99.90;;;;;;4939126;29;20464;-68
2022/02/22 09:25:39;;;;;;;6.37;2.50;;;8.60;99.90;;;;;;4939183;29;20456;-68
2022/02/22 09:28:08;;;;;;;10.80;3.80;;;8.70;99.90;;;;;;4939210;29;20456;-69
2022/02/22 09:30:36;;;;;;;7.07;3.00;;;8.70;99.90;;;;;;4938882;29;20572;-68
2022/02/22 09:33:06;;;;;;;7.20;3.50;;;8.70;99.90;;;;;;4938996;29;20441;-68
2022/02/22 09:35:33;;;;;;;9.70;2.50;;;8.70;99.90;;;;;;4938983;29;20491;-67
2022/02/22 09:38:00;;;;;;;11.50;3.73;;;8.70;99.90;;;;;;4938814;29;20460;-68
2022/02/22 09:40:28;;;;;;;7.93;2.90;;;8.70;99.90;;;;;;4937941;29;20901;-68
2022/02/22 09:42:55;;;;;;;5.90;2.30;;;8.60;99.90;;;;;;4938296;29;20468;-68
2022/02/22 09:45:22;;;;;;;8.30;2.60;;;8.60;99.90;;;;;;4938705;29;20452;-69
2022/02/22 09:47:49;;;;;;;7.80;2.57;;;8.60;99.90;;;;;;4938662;29;20547;-68
2022/02/22 09:50:18;;;;;;;12.63;3.63;;;8.60;99.90;;;;;;4938627;29;20456;-68
2022/02/22 09:52:45;;;;;;;12.70;3.17;;;8.60;99.90;;;;;;4940415;29;20464;-68
2022/02/22 09:55:12;;;;;;;5.80;2.47;;;8.60;99.90;;;;;;4941186;29;20469;-68
2022/02/22 09:57:39;;;;;;;12.27;3.07;;;8.70;99.90;;;;;;4938663;29;20461;-68
2022/02/22 10:00:20;;;;;;;10.40;2.90;;;9.00;99.90;;;;;;4938411;29;20460;-68
2022/02/22 10:02:47;;;;;;;13.03;4.17;;;8.80;99.90;;;;;;4938360;29;20797;-69
2022/02/22 10:05:15;;;;;;;7.77;2.63;;;8.90;99.90;;;;;;4938425;29;20458;-68
2022/02/22 10:07:49;;;;;;;11.93;4.90;;;9.00;99.90;;;;;;4938261;29;20452;-68
2022/02/22 10:10:16;;;;;;;10.13;2.40;;;9.10;99.90;;;;;;4938278;29;20463;-68
2022/02/22 10:12:42;;;;;;;12.60;2.97;;;9.20;99.90;;;;;;4938199;29;20602;-68
2022/02/22 10:15:10;;;;;;;7.43;2.70;;;9.30;99.90;;;;;;4938350;29;20484;-68
2022/02/22 10:17:37;;;;;;;7.20;2.63;;;9.50;99.90;;;;;;4938058;29;20949;-69
2022/02/22 10:20:07;;;;;;;11.00;3.20;;;9.50;99.90;;;;;;4938085;29;20449;-68
2022/02/22 10:22:33;;;;;;;8.53;2.93;;;9.60;99.90;;;;;;4937974;29;20481;-68
2022/02/22 10:25:07;;;;;;;9.13;3.03;;;9.60;99.90;;;;;;4938038;29;20461;-67
2022/02/22 10:27:45;;;;;;;8.30;3.27;;;9.70;99.90;;;;;;4937868;29;20445;-67
2022/02/22 10:30:28;;;;;;;12.53;3.63;;;9.70;99.90;;;;;;4937451;29;20971;-67
2022/02/22 10:32:56;;;;;;;15.30;3.17;;;9.80;99.90;;;;;;4937937;29;20445;-67
2022/02/22 10:35:30;;;;;;;9.20;3.27;;;9.80;99.90;;;;;;4937994;29;20487;-67
2022/02/22 10:37:57;;;;;;;8.60;3.20;;;9.90;99.90;;;;;;4937885;29;20451;-68
2022/02/22 10:40:32;;;;;;;8.07;2.77;;;10.00;99.90;;;;;;4939086;29;20461;-67
2022/02/22 10:42:59;;;;;;;9.70;2.90;;;10.10;99.90;;;;;;4938269;29;20920;-67
2022/02/22 10:45:26;;;;;;;10.67;3.20;;;10.10;99.90;;;;;;4938927;29;20453;-67
2022/02/22 10:47:55;;;;;;;12.97;4.10;;;10.20;99.90;;;;;;4939080;29;20460;-67
2022/02/22 10:50:26;;;;;;;6.50;2.67;;;10.20;99.90;;;;;;4938342;29;20488;-67
2022/02/22 10:52:53;;;;;;;7.50;3.10;;;10.30;99.90;;;;;;4939887;29;20479;-66
2022/02/22 10:55:21;;;;;;;6.30;3.57;;;10.30;99.90;;;;;;4939353;29;20491;-68
2022/02/22 10:57:49;;;;;;;9.10;3.63;;;10.50;99.90;;;;;;4939936;29;20489;-67
2022/02/22 11:00:17;;;;;;;8.67;2.87;;;10.50;99.90;;;;;;4938489;29;20457;-67
2022/02/22 11:02:45;;;;;;;6.50;3.20;;;10.50;99.90;;;;;;4938813;29;20441;-67
2022/02/22 11:05:12;;;;;;;11.30;3.17;;;10.40;99.90;;;;;;4938804;29;20876;-67
2022/02/22 11:07:40;;;;;;;7.97;3.37;;;10.40;99.90;;;;;;4938424;29;20492;-67
2022/02/22 11:10:09;;;;;;;8.70;3.17;;;10.30;99.90;;;;;;4937624;29;20463;-67
2022/02/22 11:12:39;;;;;;;14.53;3.50;;;10.00;99.90;;;;;;4937747;29;20480;-67
2022/02/22 11:15:10;;;;;;;8.40;2.77;;;9.80;99.90;;;;;;4938312;28;20488;-68
2022/02/22 11:17:47;;;;;;;9.07;3.70;;;9.70;99.90;;;;;;4937702;29;20884;-68
2022/02/22 11:20:27;;;;;;;7.47;3.60;;;9.50;99.90;;;;;;4937290;29;20569;-68
2022/02/22 11:22:56;;;;;;;8.10;3.00;;;9.40;99.90;;;;;;4937782;29;20460;-67
2022/02/22 11:25:29;;;;;;;7.90;3.57;;;9.40;99.90;;;;;;4938668;29;20465;-67
2022/02/22 11:28:02;;;;;;;11.30;3.47;;;9.50;99.90;;;;;;4938948;29;20519;-67
2022/02/22 11:30:32;;;;;;;9.27;3.17;;;9.40;99.90;;;;;;4937796;29;20441;-66
2022/02/22 11:33:01;;;;;;;8.37;3.27;;;9.50;99.90;;;;;;4937260;29;20464;-67
2022/02/22 11:35:29;;;;;;;12.57;4.13;;;9.60;99.90;;;;;;4938135;29;20488;-67
2022/02/22 11:38:07;;;;;;;14.70;5.60;;;9.70;99.90;;;;;;4938245;29;20464;-68
2022/02/22 11:40:35;;;;;;;15.70;3.97;;;9.90;99.90;;;;;;4938657;29;20484;-68
2022/02/22 11:43:06;;;;;;;9.20;3.20;;;10.10;99.90;;;;;;4937670;29;20655;-67
2022/02/22 11:45:34;;;;;;;10.10;3.73;;;10.10;99.90;;;;;;4938126;29;20457;-67
2022/02/22 11:48:18;;;;;;;10.77;3.43;;;10.00;99.90;;;;;;4940828;29;20464;-67
2022/02/22 11:50:47;;;;;;;7.10;3.30;;;9.70;99.90;;;;;;4937927;29;20483;-67
2022/02/22 11:53:19;;;;;;;18.20;4.03;;;9.70;99.90;;;;;;4937236;29;20952;-67
2022/02/22 11:55:50;;;;;;;8.90;3.60;;;9.70;99.90;;;;;;4937233;29;20504;-67
2022/02/22 11:58:22;;;;;;;9.67;3.93;;;9.70;99.90;;;;;;4936964;29;20448;-67
2022/02/22 12:00:54;;;;;;;7.73;3.13;;;9.60;99.90;;;;;;4936531;29;21007;-66
2022/02/22 12:03:22;;;;;;;13.63;4.47;;;9.60;99.90;;;;;;4936545;29;20797;-66
2022/02/22 12:05:54;;;;;;;9.23;3.30;;;10.00;99.90;;;;;;4936788;29;20456;-66
2022/02/22 12:08:22;;;;;;;13.40;3.40;;;10.30;99.90;;;;;;4936801;29;20460;-66
2022/02/22 12:10:50;;;;;;;11.53;3.90;;;10.50;99.90;;;;;;4936695;29;20485;-66
2022/02/22 12:13:19;;;;;;;10.37;3.33;;;10.70;99.90;;;;;;4936548;29;20824;-68
2022/02/22 12:15:46;;;;;;;11.77;3.33;;;10.90;99.90;;;;;;4936327;29;20851;-68
2022/02/22 12:18:16;;;;;;;8.53;3.60;;;11.20;99.90;;;;;;4936392;29;20967;-71
2022/02/22 12:20:45;;;;;;;16.27;3.97;;;11.40;99.90;;;;;;4936545;29;20476;-68
2022/02/22 12:23:19;;;;;;;10.37;3.33;;;11.60;99.90;;;;;;4936431;29;20538;-68
2022/02/22 12:25:47;;;;;;;6.97;3.60;;;11.80;99.90;;;;;;4936607;29;20456;-67
2022/02/22 12:28:14;;;;;;;12.67;3.73;;;12.10;99.90;;;;;;4936779;29;20479;-67
2022/02/22 12:30:43;;;;;;;6.90;3.63;;;12.50;99.90;;;;;;4936618;29;20481;-67
2022/02/22 12:33:10;;;;;;;12.57;4.07;;;12.70;99.90;;;;;;4936956;29;20456;-68
2022/02/22 12:35:40;;;;;;;11.77;4.17;;;12.90;99.90;;;;;;4936472;29;20481;-68
2022/02/22 12:38:15;;;;;;;10.73;4.10;;;13.10;99.90;;;;;;4936506;29;20456;-69
2022/02/22 12:40:42;;;;;;;8.67;3.07;;;13.10;99.90;;;;;;4936054;29;20476;-68
2022/02/22 12:43:12;;;;;;;7.90;3.00;;;13.20;99.90;;;;;;4936422;29;20530;-68
2022/02/22 12:45:40;;;;;;;9.50;4.00;;;13.20;99.90;;;;;;4936417;29;20804;-68
2022/02/22 12:48:08;;;;;;;10.20;3.70;;;13.00;99.90;;;;;;4936559;29;20460;-68
2022/02/22 12:50:36;;;;;;;6.37;3.23;;;12.90;99.90;;;;;;4936254;29;21015;-68
2022/02/22 12:53:05;;;;;;;10.07;2.90;;;12.90;99.90;;;;;;4936004;29;20461;-68
2022/02/22 12:55:32;;;;;;;12.63;3.10;;;12.70;99.90;;;;;;4936450;29;20476;-68
2022/02/22 12:58:07;;;;;;;8.20;2.70;;;12.80;99.90;;;;;;4937301;29;20469;-69
2022/02/22 13:00:33;;;;;;;5.20;2.60;;;13.00;99.90;;;;;;4936094;29;20491;-68
2022/02/22 13:03:09;;;;;;;9.37;3.77;;;13.10;99.90;;;;;;4936692;29;20819;-67
2022/02/22 13:05:41;;;;;;;10.63;3.10;;;13.20;99.90;;;;;;4936328;29;20495;-67
2022/02/22 13:08:11;;;;;;;10.93;4.10;;;13.40;99.90;;;;;;4936207;29;20461;-67
2022/02/22 13:10:45;;;;;;;8.47;2.97;;;13.50;99.90;;;;;;4935606;29;21012;-67
2022/02/22 13:13:12;;;;;;;22.13;3.97;;;13.30;99.90;;;;;;4936574;29;20448;-68
2022/02/22 13:15:40;;;;;;;17.73;4.40;;;13.30;99.90;;;;;;4939478;29;20484;-67
2022/02/22 13:18:14;;;;;;;7.63;3.00;;;13.30;99.90;;;;;;4939755;29;20803;-68
2022/02/22 13:20:42;;;;;;;9.20;3.20;;;13.30;99.90;;;;;;4940748;29;20480;-67
2022/02/22 13:23:12;;;;;;;9.63;3.40;;;13.20;99.90;;;;;;4939841;29;20966;-67
2022/02/22 13:25:40;;;;;;;8.70;2.40;;;13.00;99.90;;;;;;4940434;29;20464;-68
2022/02/22 13:28:07;;;;;;;8.23;2.90;;;13.10;99.90;;;;;;4939794;29;20460;-67
2022/02/22 13:30:35;;;;;;;8.33;2.97;;;13.00;99.90;;;;;;4939770;29;20647;-68
2022/02/22 13:33:04;;;;;;;5.60;2.53;;;13.00;99.90;;;;;;4939750;29;20467;-67
2022/02/22 13:35:31;;;;;;;13.30;4.10;;;12.90;99.90;;;;;;4940253;29;20507;-68
2022/02/22 13:37:58;;;;;;;9.43;2.63;;;12.80;99.90;;;;;;4939838;29;20456;-67
2022/02/22 13:40:31;;;;;;;8.63;2.83;;;12.80;99.90;;;;;;4938921;29;20459;-67
2022/02/22 13:43:03;;;;;;;8.17;3.00;;;12.90;99.90;;;;;;4938965;29;20529;-67
2022/02/22 13:45:34;;;;;;;6.37;2.83;;;12.70;99.90;;;;;;4938895;29;20821;-67
2022/02/22 13:48:01;;;;;;;10.37;2.90;;;12.80;99.90;;;;;;4939025;29;20583;-68
2022/02/22 13:50:28;;;;;;;7.80;2.90;;;12.80;99.90;;;;;;4938860;29;20457;-67
2022/02/22 13:52:57;;;;;;;9.10;2.80;;;12.70;99.90;;;;;;4938505;29;20463;-68
2022/02/22 13:55:26;;;;;;;7.30;3.80;;;12.70;99.90;;;;;;4938790;29;20580;-68
2022/02/22 13:58:00;;;;;;;9.33;3.23;;;12.40;99.90;;;;;;4938553;29;20949;-68
2022/02/22 14:00:28;;;;;;;10.27;3.43;;;12.20;99.90;;;;;;4938282;29;20951;-67
2022/02/22 14:03:02;;;;;;;11.80;3.40;;;12.10;99.90;;;;;;4938791;29;20449;-67
2022/02/22 14:05:29;;;;;;;8.87;3.20;;;11.90;99.90;;;;;;4938691;29;20818;-67
2022/02/22 14:07:55;;;;;;;7.07;2.33;;;11.70;99.90;;;;;;4938669;29;20453;-67
2022/02/22 14:10:23;;;;;;;13.70;3.43;;;11.70;99.90;;;;;;4938467;29;20515;-67
2022/02/22 14:12:51;;;;;;;11.70;3.63;;;11.50;99.90;;;;;;4938545;29;20467;-67
2022/02/22 14:15:18;;;;;;;11.73;3.10;;;11.30;99.90;;;;;;4937992;29;20484;-67
2022/02/22 14:17:45;;;;;;;10.50;3.90;;;11.20;99.90;;;;;;4938797;29;20532;-67
2022/02/22 14:20:12;;;;;;;16.13;3.10;;;11.20;99.90;;;;;;4938287;29;20461;-67
2022/02/22 14:22:40;;;;;;;11.20;2.70;;;11.10;99.90;;;;;;4938502;29;20476;-67
2022/02/22 14:25:09;;;;;;;10.00;3.53;;;11.10;99.90;;;;;;4940023;29;20449;-67
2022/02/22 14:27:36;;;;;;;8.93;2.80;;;10.90;99.90;;;;;;4942607;29;20461;-67
2022/02/22 14:30:04;;;;;;;10.87;3.53;;;10.90;99.90;;;;;;4942767;29;20461;-67
2022/02/22 14:32:32;;;;;;;9.90;3.03;;;10.90;99.90;;;;;;4938558;29;20484;-67
2022/02/22 14:34:59;;;;;;;10.57;3.10;;;11.10;99.90;;;;;;4938851;29;20499;-67
2022/02/22 14:37:26;;;;;;;11.53;3.00;;;11.10;99.90;;;;;;4938385;29;20456;-67
2022/02/22 14:39:53;;;;;;;8.80;3.60;;;11.20;99.90;;;;;;4938189;29;20457;-67
2022/02/22 14:42:20;;;;;;;9.23;3.40;;;11.20;99.90;;;;;;4939130;29;20964;-67
2022/02/22 14:44:47;;;;;;;13.53;4.53;;;11.10;99.90;;;;;;4937914;29;20464;-67
2022/02/22 14:47:15;;;;;;;7.63;2.83;;;10.90;99.90;;;;;;4938572;29;20457;-67
2022/02/22 14:49:42;;;;;;;10.10;3.27;;;10.80;99.90;;;;;;4938254;29;20463;-67
2022/02/22 14:52:09;;;;;;;14.20;3.83;;;10.80;99.90;;;;;;4937952;29;20480;-67
2022/02/22 14:54:35;;;;;;;13.97;3.40;;;10.70;99.90;;;;;;4937657;29;20556;-68
2022/02/22 14:57:02;;;;;;;10.60;3.90;;;10.70;99.90;;;;;;4937954;29;20491;-68
2022/02/22 14:59:29;;;;;;;8.30;3.37;;;10.60;99.90;;;;;;4937772;29;20460;-68
2022/02/22 15:01:55;;;;;;;10.33;3.20;;;10.60;99.90;;;;;;4937411;29;20863;-68
2022/02/22 15:04:23;;;;;;;13.23;3.40;;;10.60;99.90;;;;;;4937904;29;20461;-68
2022/02/22 15:06:50;;;;;;;6.97;2.63;;;10.50;99.90;;;;;;4937356;29;20460;-68
2022/02/22 15:09:18;;;;;;;11.57;3.50;;;10.30;99.90;;;;;;4937568;29;20472;-68
2022/02/22 15:11:45;;;;;;;11.23;3.10;;;10.00;99.90;;;;;;4937633;29;20476;-68
2022/02/22 15:14:12;;;;;;;11.30;2.63;;;9.90;99.90;;;;;;4937646;29;20461;-67
2022/02/22 15:16:40;;;;;;;8.33;2.60;;;9.80;99.90;;;;;;4937242;29;20500;-67
2022/02/22 15:19:07;;;;;;;11.20;3.80;;;9.80;99.90;;;;;;4937566;29;20498;-67
2022/02/22 15:21:35;;;;;;;9.93;3.13;;;9.80;99.90;;;;;;4937273;29;20483;-67
2022/02/22 15:24:02;;;;;;;6.60;2.67;;;9.90;99.90;;;;;;4937955;29;20516;-66
2022/02/22 15:26:28;;;;;;;7.13;2.73;;;9.90;99.90;;;;;;4937451;29;20459;-67
2022/02/22 15:28:56;;;;;;;9.80;3.20;;;9.90;99.90;;;;;;4937691;29;20468;-67
2022/02/22 15:31:23;;;;;;;10.40;3.07;;;10.00;99.90;;;;;;4937587;29;20477;-67
2022/02/22 15:33:50;;;;;;;7.80;2.50;;;10.10;99.90;;;;;;4937727;29;20468;-67
2022/02/22 15:36:17;;;;;;;9.80;2.87;;;10.00;99.90;;;;;;4937634;29;20511;-67
2022/02/22 15:38:45;;;;;;;7.17;2.70;;;10.00;99.90;;;;;;4937128;29;20463;-68
2022/02/22 15:41:12;;;;;;;7.30;2.50;;;9.90;99.90;;;;;;4937280;29;20504;-67
2022/02/22 15:43:38;;;;;;;6.37;2.70;;;9.90;99.90;;;;;;4937012;29;20538;-67
2022/02/22 15:46:06;;;;;;;11.10;3.20;;;9.60;99.90;;;;;;4937053;29;20457;-68
2022/02/22 15:48:32;;;;;;;6.63;2.60;;;9.60;99.90;;;;;;4936919;29;20945;-68
2022/02/22 15:50:59;;;;;;;7.17;2.70;;;9.70;99.90;;;;;;4937030;29;20481;-68
2022/02/22 15:53:28;;;;;;;10.17;2.90;;;9.60;99.90;;;;;;4937108;29;20465;-68
2022/02/22 15:55:56;;;;;;;5.03;2.77;;;9.50;99.90;;;;;;4936862;29;20484;-69
2022/02/22 15:58:23;;;;;;;8.20;3.40;;;9.50;99.90;;;;;;4937118;29;20460;-68
2022/02/22 16:00:51;;;;;;;10.03;3.10;;;9.50;99.90;;;;;;4937392;29;20512;-67
2022/02/22 16:03:18;;;;;;;8.73;2.93;;;9.50;99.90;;;;;;4937752;29;21004;-68
2022/02/22 16:05:46;;;;;;;10.17;3.60;;;9.50;99.90;;;;;;4936997;29;20458;-66
2022/02/22 16:08:13;;;;;;;4.73;2.60;;;9.50;99.90;;;;;;4937875;29;20452;-73
2022/02/22 16:10:40;;;;;;;7.57;2.80;;;9.60;99.90;;;;;;4936875;29;20556;-67
2022/02/22 16:13:08;;;;;;;12.30;2.70;;;9.50;99.90;;;;;;4936489;29;20955;-67
2022/02/22 16:15:35;;;;;;;6.93;2.90;;;9.40;99.90;;;;;;4936456;29;20468;-67
2022/02/22 16:18:01;;;;;;;9.50;3.33;;;9.50;99.90;;;;;;4936796;29;20448;-66
2022/02/22 16:20:28;;;;;;;7.50;2.50;;;9.40;99.90;;;;;;4936415;29;20460;-68
2022/02/22 16:22:56;;;;;;;6.60;2.73;;;9.50;99.90;;;;;;4936635;29;20456;-68
2022/02/22 16:25:23;;;;;;;8.40;3.20;;;9.40;99.90;;;;;;4936730;29;20487;-67
2022/02/22 16:27:50;;;;;;;10.33;3.17;;;9.10;99.90;;;;;;4936544;29;20827;-67
2022/02/22 16:30:18;;;;;;;8.23;2.40;;;9.10;99.90;;;;;;4936354;29;20483;-66
2022/02/22 16:32:45;;;;;;;7.03;2.97;;;9.00;99.90;;;;;;4936626;29;20468;-65
2022/02/22 16:35:12;;;;;;;10.30;3.40;;;9.00;99.90;;;;;;4936519;29;20461;-65
2022/02/22 16:37:41;;;;;;;9.67;2.97;;;9.00;99.90;;;;;;4936271;29;20456;-65
2022/02/22 16:40:09;;;;;;;10.13;3.73;;;8.90;99.90;;;;;;4936319;29;20481;-66
2022/02/22 16:42:36;;;;;;;12.80;3.67;;;9.00;99.90;;;;;;4936227;29;20487;-66
2022/02/22 16:45:03;;;;;;;8.40;4.07;;;8.90;99.90;;;;;;4936550;29;20870;-66
2022/02/22 16:47:31;;;;;;;11.83;4.60;;;8.90;99.90;;;;;;4936130;29;20941;-66
2022/02/22 16:49:58;;;;;;;12.33;3.40;;;8.90;99.90;;;;;;4937874;29;20905;-66
2022/02/22 16:52:24;;;;;;;10.60;4.13;;;8.90;99.90;;;;;;4940093;29;20885;-66
2022/02/22 16:54:51;;;;;;;12.20;3.73;;;8.90;99.90;;;;;;4940077;29;20456;-66
2022/02/22 16:57:18;;;;;;;16.30;3.20;;;8.80;99.90;;;;;;4939612;29;20491;-65
2022/02/22 16:59:44;;;;;;;9.43;3.83;;;8.80;99.90;;;;;;4939655;29;20804;-66
2022/02/22 17:02:11;;;;;;;11.97;2.97;;;8.80;99.90;;;;;;4939485;29;20488;-66
2022/02/22 17:04:39;;;;;;;13.18;3.63;;;8.70;99.90;;;;;;4939395;29;20465;-65
2022/02/22 17:07:09;;;;;;;13.93;3.80;;;8.70;99.90;;;;;;4939774;29;20213;-66
2022/02/22 17:09:36;;;;;;;10.43;3.33;;;8.70;99.90;;;;;;4939787;29;20465;-66
2022/02/22 17:12:02;;;;;;;9.73;3.77;;;8.70;99.90;;;;;;4939330;29;20487;-66
2022/02/22 17:14:30;;;;;;;10.23;3.13;;;8.70;99.90;;;;;;4939689;29;20788;-66
2022/02/22 17:16:57;;;;;;;13.27;3.80;;;8.70;99.90;;;;;;4939470;29;20476;-67
2022/02/22 17:19:24;;;;;;;12.03;3.30;;;8.70;99.90;;;;;;4939288;29;20935;-66
2022/02/22 17:21:52;;;;;;;6.87;3.40;;;8.70;99.90;;;;;;4939453;29;20480;-66
2022/02/22 17:24:18;;;;;;;13.30;3.10;;;8.70;99.90;;;;;;4939132;29;20952;-66
2022/02/22 17:26:45;;;;;;;8.93;2.70;;;8.70;99.90;;;;;;4939421;29;20524;-66
2022/02/22 17:29:13;;;;;;;8.73;3.70;;;8.70;99.90;;;;;;4939209;29;20456;-67
2022/02/22 17:31:40;;;;;;;12.30;3.43;;;8.60;99.90;;;;;;4939613;29;20472;-68
2022/02/22 17:34:07;;;;;;;7.93;2.43;;;8.50;99.90;;;;;;4942716;29;20449;-67
2022/02/22 17:36:34;;;;;;;9.27;3.00;;;8.40;99.90;;;;;;4939657;29;20476;-68
2022/02/22 17:39:02;;;;;;;10.20;2.90;;;8.40;99.90;;;;;;4939176;29;20979;-68
2022/02/22 17:41:29;;;;;;;11.10;2.80;;;8.40;99.90;;;;;;4939314;29;20508;-68
2022/02/22 17:43:55;;;;;;;8.50;3.00;;;8.40;99.90;;;;;;4939098;29;20456;-68
2022/02/22 17:46:22;;;;;;;10.03;3.07;;;8.20;99.90;;;;;;4938709;29;20824;-67
2022/02/22 17:48:49;;;;;;;8.60;4.00;;;8.20;99.90;;;;;;4938651;29;21027;-67
2022/02/22 17:51:16;;;;;;;7.80;3.23;;;8.10;99.90;;;;;;4938737;29;20484;-66
2022/02/22 17:53:43;;;;;;;7.00;2.63;;;7.90;99.90;;;;;;4938557;29;20822;-69